createdAt,value
2022-09-24T00:01:42.561Z,86.19
2022-09-24T00:04:13.616Z,85.93
2022-09-24T00:06:44.427Z,86.22
2022-09-24T00:09:13.456Z,85.71
2022-09-24T00:11:41.966Z,86.13
2022-09-24T00:14:10.435Z,86.17
2022-09-24T00:16:40.527Z,85.99
2022-09-24T00:19:08.981Z,85.86
2022-09-24T00:21:39.780Z,86.18
2022-09-24T00:24:10.164Z,86.03
2022-09-24T00:26:52.282Z,86.05
2022-09-24T00:29:24.423Z,86.14
2022-09-24T00:31:53.680Z,86.01
2022-09-24T00:34:22.640Z,85.85
2022-09-24T00:36:53.394Z,85.54
2022-09-24T00:39:21.056Z,84.81
2022-09-24T00:41:49.019Z,84.89
2022-09-24T00:44:54.761Z,85.36
2022-09-24T00:47:39.737Z,85.36
2022-09-24T00:50:15.944Z,85.69
2022-09-24T00:52:48.296Z,85.57
2022-09-24T00:55:17.334Z,85.74
2022-09-24T00:57:46.020Z,86.04
2022-09-24T01:00:15.207Z,85.73
2022-09-24T01:02:47.047Z,85.35
2022-09-24T01:05:15.692Z,85.10
2022-09-24T01:07:48.095Z,85.25
2022-09-24T01:10:38.265Z,85.44
2022-09-24T01:13:15.666Z,85.46
2022-09-24T01:15:50.184Z,85.36
2022-09-24T01:18:28.173Z,85.52
2022-09-24T01:21:16.050Z,85.69
2022-09-24T01:24:25.402Z,85.79
2022-09-24T01:27:03.087Z,86.02
2022-09-24T01:29:43.494Z,86.24
2022-09-24T01:32:20.079Z,86.20
2022-09-24T01:34:52.827Z,86.43
2022-09-24T01:37:24.161Z,86.00
2022-09-24T01:39:54.748Z,86.16
2022-09-24T01:42:25.025Z,86.19
2022-09-24T01:44:56.330Z,85.98
2022-09-24T01:47:34.394Z,85.84
2022-09-24T01:50:04.095Z,85.87
2022-09-24T01:52:37.659Z,85.67
2022-09-24T01:55:09.236Z,85.65
2022-09-24T01:57:41.623Z,85.58
2022-09-24T02:00:13.202Z,85.71
2022-09-24T02:02:46.454Z,86.06
2022-09-24T02:05:19.661Z,85.94
2022-09-24T02:07:59.013Z,85.82
2022-09-24T02:10:31.703Z,85.85
2022-09-24T02:13:05.085Z,85.96
2022-09-24T02:15:38.626Z,85.70
2022-09-24T02:18:10.736Z,86.22
2022-09-24T02:20:43.607Z,85.77
2022-09-24T02:23:12.837Z,86.62
2022-09-24T02:25:44.168Z,86.17
2022-09-24T02:28:11.999Z,86.31
2022-09-24T02:30:45.488Z,86.21
2022-09-24T02:33:28.946Z,85.91
2022-09-24T02:35:58.357Z,85.80
2022-09-24T02:38:26.062Z,86.32
2022-09-24T02:40:55.264Z,86.62
2022-09-24T02:43:23.081Z,86.50
2022-09-24T02:45:53.020Z,86.56
2022-09-24T02:48:20.773Z,86.66
2022-09-24T02:50:48.833Z,87.08
2022-09-24T02:53:16.537Z,87.34
2022-09-24T02:55:44.219Z,87.33
2022-09-24T02:58:12.304Z,86.80
2022-09-24T03:00:40.463Z,87.06
2022-09-24T03:03:09.593Z,86.94
2022-09-24T03:05:37.310Z,87.09
2022-09-24T03:08:05.691Z,86.83
2022-09-24T03:10:33.670Z,86.62
2022-09-24T03:13:01.334Z,86.53
2022-09-24T03:15:29.816Z,87.72
2022-09-24T03:17:57.614Z,87.97
2022-09-24T03:20:27.052Z,88.49
2022-09-24T03:22:54.731Z,88.01
2022-09-24T03:25:23.274Z,87.68
2022-09-24T03:27:50.932Z,88.07
2022-09-24T03:30:37.085Z,88.56
2022-09-24T03:33:04.873Z,87.56
2022-09-24T03:35:34.778Z,87.32
2022-09-24T03:38:02.457Z,87.22
2022-09-24T03:40:30.541Z,87.50
2022-09-24T03:42:58.243Z,87.73
2022-09-24T03:45:26.149Z,87.56
2022-09-24T03:47:53.829Z,87.90
2022-09-24T03:50:21.899Z,88.04
2022-09-24T03:52:50.887Z,87.99
2022-09-24T03:55:18.853Z,88.13
2022-09-24T03:57:46.528Z,88.44
2022-09-24T04:00:15.460Z,88.66
2022-09-24T04:02:43.188Z,88.77
2022-09-24T04:05:11.279Z,88.62
2022-09-24T04:07:38.922Z,88.85
2022-09-24T04:10:10.289Z,88.73
2022-09-24T04:12:38.602Z,88.42
2022-09-24T04:15:07.132Z,88.35
2022-09-24T04:17:34.789Z,88.17
2022-09-24T04:20:03.203Z,88.36
2022-09-24T04:22:30.918Z,88.40
2022-09-24T04:24:59.273Z,88.37
2022-09-24T04:27:28.351Z,88.16
2022-09-24T04:29:56.745Z,88.26
2022-09-24T04:32:24.433Z,87.87
2022-09-24T04:34:52.900Z,87.68
2022-09-24T04:37:20.562Z,87.75
2022-09-24T04:39:48.431Z,88.02
2022-09-24T04:42:19.374Z,87.95
2022-09-24T04:44:51.715Z,87.86
2022-09-24T04:47:24.290Z,87.93
2022-09-24T04:49:52.830Z,87.68
2022-09-24T04:52:20.571Z,87.95
2022-09-24T04:54:48.568Z,87.63
2022-09-24T04:57:16.249Z,86.96
2022-09-24T04:59:44.492Z,87.08
2022-09-24T05:02:13.611Z,87.44
2022-09-24T05:04:41.818Z,87.92
2022-09-24T05:07:09.551Z,87.68
2022-09-24T05:09:37.848Z,87.26
2022-09-24T05:12:05.965Z,87.58
2022-09-24T05:14:33.976Z,88.14
2022-09-24T05:17:01.618Z,88.38
2022-09-24T05:19:31.253Z,88.40
2022-09-24T05:21:58.916Z,88.82
2022-09-24T05:24:27.109Z,88.63
2022-09-24T05:27:09.815Z,88.11
2022-09-24T05:29:39.659Z,88.21
2022-09-24T05:32:09.036Z,88.16
2022-09-24T05:34:38.919Z,88.63
2022-09-24T05:37:07.043Z,88.57
2022-09-24T05:39:35.578Z,88.20
2022-09-24T05:42:04.388Z,88.42
2022-09-24T05:44:32.522Z,88.19
2022-09-24T05:47:00.591Z,88.07
2022-09-24T05:49:28.693Z,88.07
2022-09-24T05:51:57.722Z,87.88
2022-09-24T05:54:25.610Z,87.89
2022-09-24T05:56:53.328Z,87.82
2022-09-24T05:59:21.318Z,87.76
2022-09-24T06:01:49.263Z,87.74
2022-09-24T06:04:17.797Z,87.66
2022-09-24T06:06:45.443Z,87.45
2022-09-24T06:09:15.176Z,87.51
2022-09-24T06:11:43.334Z,87.60
2022-09-24T06:14:11.788Z,87.57
2022-09-24T06:16:39.646Z,87.33
2022-09-24T06:19:08.037Z,87.26
2022-09-24T06:21:35.831Z,87.28
2022-09-24T06:24:04.339Z,87.19
2022-09-24T06:26:34.146Z,87.12
2022-09-24T06:29:04.970Z,87.15
2022-09-24T06:31:41.092Z,87.12
2022-09-24T06:34:09.622Z,86.98
2022-09-24T06:36:37.309Z,86.87
2022-09-24T06:39:05.803Z,86.74
2022-09-24T06:41:34.848Z,86.58
2022-09-24T06:44:03.612Z,86.09
2022-09-24T06:46:31.376Z,85.96
2022-09-24T06:48:59.795Z,85.74
2022-09-24T06:51:27.460Z,85.75
2022-09-24T06:53:55.811Z,85.41
2022-09-24T06:56:23.500Z,85.21
2022-09-24T06:58:53.088Z,85.04
2022-09-24T07:01:20.854Z,85.04
2022-09-24T07:03:48.915Z,85.12
2022-09-24T07:06:16.844Z,85.22
2022-09-24T07:08:44.808Z,85.37
2022-09-24T07:11:15.207Z,85.21
2022-09-24T07:13:42.982Z,85.01
2022-09-24T07:16:12.293Z,84.83
2022-09-24T07:18:40.385Z,84.71
2022-09-24T07:21:08.048Z,84.31
2022-09-24T07:23:36.064Z,84.12
2022-09-24T07:26:03.806Z,84.10
2022-09-24T07:28:31.537Z,84.49
2022-09-24T07:31:00.217Z,84.47
2022-09-24T07:33:31.716Z,84.10
2022-09-24T07:36:00.497Z,83.72
2022-09-24T07:38:28.166Z,83.05
2022-09-24T07:40:59.539Z,82.90
2022-09-24T07:43:27.970Z,82.56
2022-09-24T07:45:57.196Z,82.32
2022-09-24T07:48:25.336Z,82.50
2022-09-24T07:50:55.213Z,82.87
2022-09-24T07:53:23.599Z,83.06
2022-09-24T07:55:52.592Z,83.15
2022-09-24T07:58:20.705Z,83.04
2022-09-24T08:00:48.378Z,84.08
2022-09-24T08:03:16.376Z,83.66
2022-09-24T08:05:45.800Z,83.64
2022-09-24T08:08:15.323Z,83.51
2022-09-24T08:10:43.509Z,83.34
2022-09-24T08:13:11.221Z,83.76
2022-09-24T08:15:39.032Z,83.95
2022-09-24T08:18:07.226Z,84.99
2022-09-24T08:20:37.533Z,85.30
2022-09-24T08:23:06.938Z,85.67
2022-09-24T08:25:36.467Z,85.66
2022-09-24T08:28:04.522Z,85.60
2022-09-24T08:30:33.818Z,85.48
2022-09-24T08:33:01.851Z,85.36
2022-09-24T08:35:29.897Z,87.02
2022-09-24T08:38:01.248Z,86.63
2022-09-24T08:40:32.810Z,87.37
2022-09-24T08:43:14.275Z,87.97
2022-09-24T08:46:05.032Z,87.82
2022-09-24T08:48:37.125Z,88.75
2022-09-24T08:51:09.797Z,89.70
2022-09-24T08:53:48.626Z,89.48
2022-09-24T08:56:20.563Z,89.54
2022-09-24T08:58:55.724Z,90.06
2022-09-24T09:01:34.137Z,90.79
2022-09-24T09:04:06.497Z,91.34
2022-09-24T09:06:48.977Z,90.40
2022-09-24T09:09:20.660Z,91.20
2022-09-24T09:11:51.495Z,91.05
2022-09-24T09:14:30.510Z,91.11
2022-09-24T09:17:03.192Z,91.37
2022-09-24T09:19:35.159Z,91.55
2022-09-24T09:22:09.148Z,91.23
2022-09-24T09:24:46.212Z,90.76
2022-09-24T09:27:16.327Z,90.28
2022-09-24T09:29:49.510Z,90.50
2022-09-24T09:32:32.322Z,90.10
2022-09-24T09:35:12.844Z,91.11
2022-09-24T09:37:47.280Z,89.80
2022-09-24T09:40:32.527Z,90.04
2022-09-24T09:43:03.145Z,89.09
2022-09-24T09:45:39.883Z,88.67
2022-09-24T09:48:12.731Z,88.46
2022-09-24T09:50:44.462Z,88.10
2022-09-24T09:53:20.925Z,88.29
2022-09-24T09:55:54.744Z,87.34
2022-09-24T09:58:25.537Z,87.65
2022-09-24T10:01:04.891Z,88.33
2022-09-24T10:03:35.665Z,88.00
2022-09-24T10:06:07.831Z,87.19
2022-09-24T10:08:36.027Z,86.20
2022-09-24T10:11:04.163Z,86.51
2022-09-24T10:13:32.566Z,85.05
2022-09-24T10:16:04.729Z,85.50
2022-09-24T10:18:35.054Z,85.46
2022-09-24T10:21:07.820Z,84.99
2022-09-24T10:23:39.068Z,85.42
2022-09-24T10:26:07.692Z,86.40
2022-09-24T10:29:13.125Z,86.81
2022-09-24T10:31:43.035Z,87.51
2022-09-24T10:34:22.933Z,87.17
2022-09-24T10:36:52.712Z,87.21
2022-09-24T10:39:22.862Z,85.98
2022-09-24T10:41:52.512Z,85.90
2022-09-24T10:44:22.360Z,86.60
2022-09-24T10:47:08.946Z,86.90
2022-09-24T10:49:52.168Z,86.67
2022-09-24T10:52:36.500Z,86.74
2022-09-24T10:55:15.200Z,85.12
2022-09-24T10:57:54.091Z,85.24
2022-09-24T11:00:23.614Z,85.56
2022-09-24T11:03:29.817Z,84.82
2022-09-24T11:06:03.603Z,84.37
2022-09-24T11:08:52.107Z,85.17
2022-09-24T11:11:31.318Z,84.97
2022-09-24T11:14:14.399Z,86.21
2022-09-24T11:16:59.514Z,85.48
2022-09-24T11:19:50.967Z,85.28
2022-09-24T11:22:29.337Z,84.85
2022-09-24T11:25:15.878Z,84.88
2022-09-24T11:27:56.886Z,84.96
2022-09-24T11:30:30.198Z,84.81
2022-09-24T11:33:10.636Z,84.65
2022-09-24T11:35:59.855Z,83.47
2022-09-24T11:38:44.833Z,83.12
2022-09-24T11:41:28.303Z,82.94
2022-09-24T11:44:11.575Z,83.15
2022-09-24T11:46:54.002Z,83.06
2022-09-24T11:49:42.384Z,83.41
2022-09-24T11:52:16.297Z,83.71
2022-09-24T11:54:57.495Z,82.91
2022-09-24T11:57:29.214Z,82.73
2022-09-24T12:00:04.788Z,83.08
2022-09-24T12:02:37.728Z,82.66
2022-09-24T12:05:10.562Z,82.68
2022-09-24T12:07:45.139Z,82.40
2022-09-24T12:10:26.770Z,81.44
2022-09-24T12:12:58.873Z,80.19
2022-09-24T12:15:32.065Z,80.29
2022-09-24T12:18:07.246Z,80.97
2022-09-24T12:20:44.046Z,79.69
2022-09-24T12:23:15.719Z,80.46
2022-09-24T12:25:47.502Z,80.11
2022-09-24T12:28:38.282Z,80.70
2022-09-24T12:31:32.109Z,80.33
2022-09-24T12:34:06.765Z,80.12
2022-09-24T12:36:57.150Z,80.59
2022-09-24T12:39:29.243Z,79.47
2022-09-24T12:42:02.658Z,79.39
2022-09-24T12:44:40.284Z,79.01
2022-09-24T12:47:17.742Z,79.49
2022-09-24T12:49:51.422Z,78.75
2022-09-24T12:52:25.400Z,78.39
2022-09-24T12:55:00.761Z,78.07
2022-09-24T12:57:33.752Z,75.96
2022-09-24T13:00:04.386Z,75.71
2022-09-24T13:02:46.174Z,76.13
2022-09-24T13:05:27.542Z,74.88
2022-09-24T13:08:03.290Z,74.58
2022-09-24T13:10:33.374Z,74.17
2022-09-24T13:13:04.227Z,73.95
2022-09-24T13:15:36.075Z,72.83
2022-09-24T13:18:19.687Z,72.26
2022-09-24T13:21:00.543Z,72.29
2022-09-24T13:23:35.362Z,73.95
2022-09-24T13:26:05.809Z,73.91
2022-09-24T13:28:51.808Z,73.97
2022-09-24T13:31:26.686Z,73.12
2022-09-24T13:33:58.642Z,72.76
2022-09-24T13:36:31.285Z,72.81
2022-09-24T13:39:06.307Z,72.60
2022-09-24T13:41:43.480Z,73.40
2022-09-24T13:44:18.288Z,74.18
2022-09-24T13:46:48.629Z,75.22
2022-09-24T13:49:19.599Z,75.21
2022-09-24T13:51:56.741Z,75.60
2022-09-24T13:54:34.853Z,76.00
2022-09-24T13:57:13.199Z,77.54
2022-09-24T13:59:42.255Z,77.36
2022-09-24T14:02:24.406Z,76.91
2022-09-24T14:04:55.923Z,77.73
2022-09-24T14:07:24.125Z,77.53
2022-09-24T14:10:03.096Z,77.80
2022-09-24T14:12:30.748Z,78.25
2022-09-24T14:15:00.225Z,77.92
2022-09-24T14:17:27.983Z,77.76
2022-09-24T14:19:57.759Z,77.81
2022-09-24T14:22:29.107Z,78.27
2022-09-24T14:25:01.604Z,78.05
2022-09-24T14:27:30.292Z,77.91
2022-09-24T14:30:02.509Z,78.31
2022-09-24T14:32:32.706Z,78.85
2022-09-24T14:35:02.402Z,78.84
2022-09-24T14:37:33.998Z,78.33
2022-09-24T14:40:08.097Z,78.32
2022-09-24T14:42:41.496Z,78.26
2022-09-24T14:45:18.193Z,78.12
2022-09-24T14:47:45.847Z,78.19
2022-09-24T14:50:29.291Z,77.94
2022-09-24T14:53:00.458Z,77.96
2022-09-24T14:55:39.699Z,77.34
2022-09-24T14:58:23.044Z,77.16
2022-09-24T15:00:56.187Z,77.39
2022-09-24T15:03:30.082Z,77.75
2022-09-24T15:06:18.062Z,77.57
2022-09-24T15:08:54.704Z,77.96
2022-09-24T15:11:28.007Z,78.41
2022-09-24T15:14:01.776Z,78.66
2022-09-24T15:16:34.094Z,78.67
2022-09-24T15:19:17.362Z,78.88
2022-09-24T15:21:45.547Z,78.96
2022-09-24T15:24:13.514Z,78.97
2022-09-24T15:26:43.346Z,78.92
2022-09-24T15:29:20.049Z,78.83
2022-09-24T15:31:49.064Z,78.78
2022-09-24T15:34:20.001Z,79.02
2022-09-24T15:36:48.429Z,79.31
2022-09-24T15:39:19.615Z,79.67
2022-09-24T15:41:47.279Z,79.53
2022-09-24T15:44:20.814Z,79.99
2022-09-24T15:46:51.129Z,80.11
2022-09-24T15:49:21.873Z,80.12
2022-09-24T15:51:51.274Z,80.29
2022-09-24T15:54:19.288Z,80.40
2022-09-24T15:56:52.206Z,80.60
2022-09-24T15:59:20.976Z,80.97
2022-09-24T16:01:54.359Z,81.29
2022-09-24T16:04:22.519Z,81.64
2022-09-24T16:06:50.564Z,81.66
2022-09-24T16:09:18.655Z,81.56
2022-09-24T16:11:46.794Z,82.16
2022-09-24T16:14:14.726Z,82.28
2022-09-24T16:16:42.515Z,82.33
2022-09-24T16:19:12.883Z,82.34
2022-09-24T16:21:40.814Z,82.68
2022-09-24T16:24:08.857Z,82.63
2022-09-24T16:26:37.363Z,83.19
2022-09-24T16:29:06.221Z,83.64
2022-09-24T16:31:34.119Z,83.91
2022-09-24T16:34:02.262Z,83.93
2022-09-24T16:36:31.381Z,83.94
2022-09-24T16:39:00.120Z,84.05
2022-09-24T16:41:27.777Z,84.39
2022-09-24T16:43:56.794Z,84.45
2022-09-24T16:46:24.696Z,84.54
2022-09-24T16:48:52.913Z,84.30
2022-09-24T16:51:20.677Z,84.29
2022-09-24T16:53:55.509Z,84.63
2022-09-24T16:56:23.555Z,84.46
2022-09-24T16:58:52.743Z,84.49
2022-09-24T17:01:22.206Z,84.54
2022-09-24T17:03:52.493Z,84.57
2022-09-24T17:06:21.797Z,84.79
2022-09-24T17:09:08.807Z,84.93
2022-09-24T17:11:37.107Z,85.02
2022-09-24T17:14:05.743Z,85.14
2022-09-24T17:16:33.678Z,85.33
2022-09-24T17:19:02.066Z,85.20
2022-09-24T17:21:29.868Z,86.14
2022-09-24T17:23:59.221Z,85.90
2022-09-24T17:26:27.109Z,85.94
2022-09-24T17:28:55.479Z,85.94
2022-09-24T17:31:25.212Z,86.04
2022-09-24T17:33:56.980Z,86.45
2022-09-24T17:36:25.819Z,86.29
2022-09-24T17:38:54.077Z,86.44
2022-09-24T17:41:23.562Z,86.27
2022-09-24T17:43:52.370Z,86.27
2022-09-24T17:46:22.525Z,86.47
2022-09-24T17:48:52.742Z,86.58
2022-09-24T17:51:22.644Z,86.46
2022-09-24T17:53:52.529Z,86.59
2022-09-24T17:56:21.971Z,86.79
2022-09-24T17:58:52.460Z,86.94
2022-09-24T18:01:22.327Z,87.14
2022-09-24T18:03:53.891Z,86.68
2022-09-24T18:06:21.905Z,87.09
2022-09-24T18:08:49.604Z,87.12
2022-09-24T18:11:18.978Z,87.41
2022-09-24T18:13:52.802Z,87.53
2022-09-24T18:16:23.095Z,87.36
2022-09-24T18:18:51.269Z,87.10
2022-09-24T18:21:21.256Z,87.01
2022-09-24T18:23:49.016Z,87.40
2022-09-24T18:26:19.759Z,87.18
2022-09-24T18:28:49.720Z,87.42
2022-09-24T18:31:20.328Z,87.51
2022-09-24T18:33:50.134Z,87.79
2022-09-24T18:36:20.799Z,87.76
2022-09-24T18:38:48.611Z,87.82
2022-09-24T18:41:19.483Z,87.82
2022-09-24T18:43:47.288Z,87.79
2022-09-24T18:46:17.160Z,88.36
2022-09-24T18:48:49.299Z,88.12
2022-09-24T18:51:19.172Z,88.34
2022-09-24T18:53:51.796Z,88.42
2022-09-24T18:56:19.608Z,88.45
2022-09-24T18:58:48.015Z,88.27
2022-09-24T19:01:16.446Z,88.38
2022-09-24T19:03:44.371Z,88.27
2022-09-24T19:06:14.151Z,88.61
2022-09-24T19:08:42.326Z,88.53
2022-09-24T19:11:11.529Z,88.62
2022-09-24T19:13:41.196Z,88.61
2022-09-24T19:16:11.606Z,88.63
2022-09-24T19:18:40.086Z,88.66
2022-09-24T19:21:09.569Z,88.71
2022-09-24T19:23:39.510Z,88.60
2022-09-24T19:26:08.536Z,88.48
2022-09-24T19:28:36.642Z,88.81
2022-09-24T19:31:07.099Z,88.51
2022-09-24T19:33:34.893Z,88.64
2022-09-24T19:36:04.621Z,88.75
2022-09-24T19:38:35.572Z,88.58
2022-09-24T19:41:06.858Z,88.81
2022-09-24T19:43:35.385Z,88.73
2022-09-24T19:46:05.236Z,88.48
2022-09-24T19:48:36.739Z,88.47
2022-09-24T19:51:07.397Z,88.08
2022-09-24T19:53:35.799Z,87.93
2022-09-24T19:56:07.439Z,88.17
2022-09-24T19:58:36.949Z,88.28
2022-09-24T20:01:07.337Z,88.22
2022-09-24T20:03:36.441Z,88.38
2022-09-24T20:06:08.178Z,88.42
2022-09-24T20:08:35.912Z,88.52
2022-09-24T20:11:04.728Z,88.31
2022-09-24T20:13:34.547Z,88.31
2022-09-24T20:16:04.851Z,88.38
2022-09-24T20:18:34.650Z,88.40
2022-09-24T20:21:04.059Z,88.59
2022-09-24T20:23:32.084Z,88.25
2022-09-24T20:26:17.791Z,88.40
2022-09-24T20:28:46.864Z,88.59
2022-09-24T20:31:19.096Z,88.62
2022-09-24T20:33:46.852Z,88.57
2022-09-24T20:36:18.788Z,88.80
2022-09-24T20:38:49.201Z,88.74
2022-09-24T20:41:18.983Z,88.75
2022-09-24T20:43:48.521Z,88.57
2022-09-24T20:46:17.788Z,88.35
2022-09-24T20:48:45.593Z,88.32
2022-09-24T20:51:15.534Z,88.36
2022-09-24T20:53:43.257Z,88.45
2022-09-24T20:56:11.736Z,88.66
2022-09-24T20:58:40.490Z,88.79
2022-09-24T21:01:10.954Z,88.90
2022-09-24T21:03:45.317Z,88.90
2022-09-24T21:06:14.963Z,89.05
2022-09-24T21:08:45.898Z,89.16
2022-09-24T21:11:16.012Z,89.29
2022-09-24T21:13:49.936Z,89.53
2022-09-24T21:16:21.074Z,89.47
2022-09-24T21:18:50.411Z,89.54
2022-09-24T21:21:20.520Z,89.31
2022-09-24T21:23:50.968Z,89.35
2022-09-24T21:26:20.841Z,89.35
2022-09-24T21:28:50.585Z,89.49
2022-09-24T21:31:22.636Z,89.76
2022-09-24T21:33:53.309Z,89.77
2022-09-24T21:36:24.254Z,89.65
2022-09-24T21:38:55.592Z,89.55
2022-09-24T21:41:23.593Z,89.63
2022-09-24T21:43:53.447Z,89.79
2022-09-24T21:46:23.421Z,90.13
2022-09-24T21:48:52.017Z,89.92
2022-09-24T21:51:21.426Z,90.26
2022-09-24T21:53:49.563Z,90.25
2022-09-24T21:56:18.897Z,90.10
2022-09-24T21:58:46.828Z,90.02
2022-09-24T22:01:17.812Z,89.90
2022-09-24T22:03:47.700Z,90.00
2022-09-24T22:06:15.849Z,89.97
2022-09-24T22:08:45.429Z,89.96
2022-09-24T22:11:14.240Z,90.08
2022-09-24T22:13:42.193Z,90.07
2022-09-24T22:16:11.959Z,89.89
2022-09-24T22:18:41.227Z,89.89
2022-09-24T22:21:13.703Z,89.82
2022-09-24T22:23:42.283Z,89.83
2022-09-24T22:26:13.529Z,89.84
2022-09-24T22:28:42.643Z,89.57
2022-09-24T22:31:12.351Z,89.19
2022-09-24T22:33:58.600Z,88.80
2022-09-24T22:36:28.776Z,88.62
2022-09-24T22:38:58.204Z,89.20
2022-09-24T22:41:28.689Z,89.22
2022-09-24T22:43:57.183Z,89.52
2022-09-24T22:46:26.889Z,89.47
2022-09-24T22:48:55.933Z,90.25
2022-09-24T22:51:24.066Z,90.12
2022-09-24T22:53:53.733Z,90.14
2022-09-24T22:56:23.413Z,90.29
2022-09-24T22:58:53.073Z,89.66
2022-09-24T23:01:23.214Z,88.41
2022-09-24T23:03:52.120Z,88.26
2022-09-24T23:06:20.786Z,88.41
2022-09-24T23:08:49.495Z,88.58
2022-09-24T23:11:21.022Z,88.83
2022-09-24T23:13:53.288Z,89.04
2022-09-24T23:16:22.760Z,89.27
2022-09-24T23:18:54.387Z,89.83
2022-09-24T23:21:24.432Z,89.88
2022-09-24T23:23:56.187Z,89.98
2022-09-24T23:26:26.243Z,90.06
2022-09-24T23:28:55.046Z,90.20
2022-09-24T23:31:25.688Z,90.24
2022-09-24T23:33:55.354Z,89.98
2022-09-24T23:36:23.815Z,90.08
2022-09-24T23:38:52.944Z,90.05
2022-09-24T23:41:21.181Z,90.30
2022-09-24T23:43:50.579Z,90.52
2022-09-24T23:46:18.546Z,90.44
2022-09-24T23:48:46.250Z,90.28
2022-09-24T23:51:14.271Z,89.92
2022-09-24T23:53:42.500Z,89.51
2022-09-24T23:56:10.531Z,89.36
2022-09-24T23:58:38.557Z,89.49
